Time;durP1;ratioP1;P1;durP2;ratioP2;P2;SDS_P1;SDS_P2;PMS_P1;PMS_P2;Temp;Humidity;BMP_temperature;BMP_pressure;BME280_temperature;BME280_humidity;BME280_pressure;Samples;Min_cycle;Max_cycle;Signal;HPM_P1;HPM_P2
2022/03/19 00:01:28;;;;;;;7.80;4.10;;;;;;;;;;5071630;28;20031;-91
2022/03/19 00:03:54;;;;;;;12.57;4.07;;;;;;;;;;5071668;28;20393;-89
2022/03/19 00:06:19;;;;;;;7.97;3.85;;;;;;;;;;5072347;28;20486;-91
2022/03/19 00:08:45;;;;;;;9.68;3.78;;;;;;;;;;5072797;28;20031;-91
2022/03/19 00:11:11;;;;;;;12.27;4.18;;;;;;;;;;5071914;28;20032;-83
2022/03/19 00:13:36;;;;;;;8.23;3.72;;;;;;;;;;5073037;28;20081;-83
2022/03/19 00:16:01;;;;;;;7.13;3.45;;;;;;;;;;5072049;28;20105;-91
2022/03/19 00:18:27;;;;;;;8.77;3.78;;;;;;;;;;5071611;28;20032;-91
2022/03/19 00:20:52;;;;;;;9.48;4.07;;;;;;;;;;5071431;28;20025;-88
2022/03/19 00:23:18;;;;;;;6.05;3.33;;;;;;;;;;5072590;28;20130;-91
2022/03/19 00:25:43;;;;;;;7.65;3.65;;;;;;;;;;5071842;28;20070;-84
2022/03/19 00:28:08;;;;;;;10.38;3.85;;;;;;;;;;5071745;28;20032;-89
2022/03/19 00:30:34;;;;;;;10.07;3.35;;;;;;;;;;5071712;28;20031;-90
2022/03/19 00:32:59;;;;;;;11.88;3.97;;;;;;;;;;5071270;28;20027;-88
2022/03/19 00:35:24;;;;;;;8.60;3.35;;;;;;;;;;5071251;28;20103;-87
2022/03/19 00:37:50;;;;;;;10.57;3.55;;;;;;;;;;5072734;28;20362;-83
2022/03/19 00:40:16;;;;;;;10.90;3.50;;;;;;;;;;5071846;28;20020;-90
2022/03/19 00:42:42;;;;;;;7.07;3.20;;;;;;;;;;5072749;28;20376;-90
2022/03/19 00:45:08;;;;;;;8.68;2.95;;;;;;;;;;5071820;28;20025;-84
2022/03/19 00:47:34;;;;;;;8.90;3.38;;;;;;;;;;5071305;28;20392;-90
2022/03/19 00:50:00;;;;;;;8.45;3.63;;;;;;;;;;5071388;28;20024;-83
2022/03/19 00:52:25;;;;;;;9.00;3.15;;;;;;;;;;5073079;28;20032;-90
2022/03/19 00:54:50;;;;;;;7.38;3.33;;;;;;;;;;5071348;28;20127;-91
2022/03/19 00:57:15;;;;;;;8.43;2.60;;;;;;;;;;5071661;28;20048;-91
2022/03/19 00:59:40;;;;;;;7.45;3.20;;;;;;;;;;5071573;28;20487;-91
2022/03/19 01:02:06;;;;;;;10.60;3.28;;;;;;;;;;5071698;28;20021;-91
2022/03/19 01:04:31;;;;;;;7.70;3.47;;;;;;;;;;5071552;28;20032;-84
2022/03/19 01:06:56;;;;;;;8.27;3.15;;;;;;;;;;5072954;28;20025;-90
2022/03/19 01:09:21;;;;;;;9.40;3.53;;;;;;;;;;5071639;28;20023;-91
2022/03/19 01:11:47;;;;;;;9.85;3.33;;;;;;;;;;5072636;28;20096;-84
2022/03/19 01:14:12;;;;;;;7.68;3.10;;;;;;;;;;5071416;28;20094;-90
2022/03/19 01:16:37;;;;;;;7.88;3.10;;;;;;;;;;5071437;28;20093;-91
2022/03/19 01:19:03;;;;;;;8.65;3.70;;;;;;;;;;5072193;28;20430;-91
2022/03/19 01:21:28;;;;;;;11.63;3.45;;;;;;;;;;5071215;28;20421;-83
2022/03/19 01:23:53;;;;;;;12.45;3.50;;;;;;;;;;5071091;28;20092;-90
2022/03/19 01:26:18;;;;;;;11.75;3.60;;;;;;;;;;5071008;28;20028;-90
2022/03/19 01:28:44;;;;;;;6.40;3.40;;;;;;;;;;5071161;28;20052;-83
2022/03/19 01:31:11;;;;;;;8.27;3.10;;;;;;;;;;5074526;28;20016;-91
2022/03/19 01:33:36;;;;;;;8.43;3.30;;;;;;;;;;5074577;28;20052;-88
2022/03/19 01:36:01;;;;;;;12.20;3.55;;;;;;;;;;5074665;28;20023;-84
2022/03/19 01:38:26;;;;;;;7.22;3.03;;;;;;;;;;5074378;28;20047;-83
2022/03/19 01:40:51;;;;;;;8.35;3.40;;;;;;;;;;5075642;28;20548;-91
2022/03/19 01:43:17;;;;;;;9.80;3.63;;;;;;;;;;5074298;28;20016;-90
2022/03/19 01:45:42;;;;;;;8.82;3.20;;;;;;;;;;5074336;28;20024;-91
2022/03/19 01:48:07;;;;;;;11.80;3.30;;;;;;;;;;5074281;28;20020;-91
2022/03/19 01:50:33;;;;;;;7.18;3.20;;;;;;;;;;5074240;28;20469;-90
2022/03/19 01:52:58;;;;;;;6.53;3.00;;;;;;;;;;5073618;28;20381;-84
2022/03/19 01:55:25;;;;;;;8.43;3.03;;;;;;;;;;5075512;28;20028;-91
2022/03/19 01:57:51;;;;;;;9.25;2.85;;;;;;;;;;5075063;28;20047;-86
2022/03/19 02:00:18;;;;;;;8.05;3.15;;;;;;;;;;5074761;28;20086;-92
2022/03/19 02:02:44;;;;;;;9.70;3.40;;;;;;;;;;5073611;28;20025;-91
2022/03/19 02:05:14;;;;;;;6.70;3.00;;;;;;;;;;5073955;28;20081;-89
2022/03/19 02:07:39;;;;;;;7.93;2.97;;;;;;;;;;5074096;28;20024;-92
2022/03/19 02:10:05;;;;;;;7.75;3.13;;;;;;;;;;5073883;28;20017;-83
2022/03/19 02:12:30;;;;;;;11.30;3.40;;;;;;;;;;5073768;28;20020;-90
2022/03/19 02:14:57;;;;;;;9.85;3.42;;;;;;;;;;5075071;28;20484;-83
2022/03/19 02:17:24;;;;;;;9.52;3.33;;;;;;;;;;5073534;28;20429;-91
2022/03/19 02:19:53;;;;;;;9.02;3.40;;;;;;;;;;5074832;28;20103;-89
2022/03/19 02:22:19;;;;;;;5.80;3.22;;;;;;;;;;5073595;28;20115;-91
2022/03/19 02:27:29;;;;;;;11.05;3.63;;;;;;;;;;5075038;28;20031;-91
2022/03/19 02:29:56;;;;;;;6.15;3.13;;;;;;;;;;5073735;28;20060;-92
2022/03/19 02:32:21;;;;;;;7.95;3.40;;;;;;;;;;5074126;28;20016;-88
2022/03/19 02:34:46;;;;;;;6.00;2.92;;;;;;;;;;5074690;28;20039;-90
2022/03/19 02:37:12;;;;;;;8.85;3.25;;;;;;;;;;5073560;28;20020;-91
2022/03/19 02:39:37;;;;;;;9.63;3.13;;;;;;;;;;5073469;28;20028;-91
2022/03/19 02:42:04;;;;;;;8.45;3.10;;;;;;;;;;5074471;28;20013;-91
2022/03/19 02:44:29;;;;;;;7.82;3.28;;;;;;;;;;5073342;28;20012;-91
2022/03/19 02:46:56;;;;;;;10.55;3.38;;;;;;;;;;5073577;28;20361;-91
2022/03/19 02:49:21;;;;;;;9.40;3.20;;;;;;;;;;5073655;28;20016;-91
2022/03/19 02:51:47;;;;;;;9.32;3.72;;;;;;;;;;5072815;28;20019;-91
2022/03/19 02:54:14;;;;;;;8.02;3.40;;;;;;;;;;5072922;28;20060;-84
2022/03/19 02:56:40;;;;;;;9.00;3.72;;;;;;;;;;5074233;28;20016;-83
2022/03/19 02:59:05;;;;;;;7.03;3.40;;;;;;;;;;5072990;28;20056;-89
2022/03/19 03:01:31;;;;;;;7.40;4.00;;;;;;;;;;5074468;28;20047;-91
2022/03/19 03:03:56;;;;;;;9.82;3.88;;;;;;;;;;5072533;28;20012;-91
2022/03/19 03:06:21;;;;;;;10.18;3.65;;;;;;;;;;5073009;28;20017;-90
2022/03/19 03:08:46;;;;;;;10.40;4.30;;;;;;;;;;5072416;28;20092;-91
2022/03/19 03:11:12;;;;;;;7.97;3.80;;;;;;;;;;5073849;28;20487;-91
2022/03/19 03:13:37;;;;;;;10.93;4.10;;;;;;;;;;5072713;28;20020;-91
2022/03/19 03:16:02;;;;;;;12.18;4.43;;;;;;;;;;5072855;28;20028;-91
2022/03/19 03:18:28;;;;;;;13.18;4.82;;;;;;;;;;5072807;28;20013;-83
2022/03/19 03:20:53;;;;;;;13.80;4.78;;;;;;;;;;5072501;28;20025;-91
2022/03/19 03:23:18;;;;;;;12.98;4.50;;;;;;;;;;5072638;28;20012;-83
2022/03/19 03:25:44;;;;;;;10.73;4.80;;;;;;;;;;5072601;28;20521;-88
2022/03/19 03:28:09;;;;;;;11.32;4.55;;;;;;;;;;5072687;28;20020;-91
2022/03/19 03:30:34;;;;;;;13.88;4.70;;;;;;;;;;5073573;28;20415;-84
2022/03/19 03:33:00;;;;;;;10.35;4.32;;;;;;;;;;5072363;28;20062;-92
2022/03/19 03:35:25;;;;;;;11.65;5.20;;;;;;;;;;5072517;28;20032;-90
2022/03/19 03:37:51;;;;;;;11.07;5.35;;;;;;;;;;5073347;28;20016;-87
2022/03/19 03:40:18;;;;;;;11.73;4.57;;;;;;;;;;5072652;28;20389;-83
2022/03/19 03:42:43;;;;;;;11.90;4.97;;;;;;;;;;5073361;28;20099;-90
2022/03/19 03:45:10;;;;;;;12.00;5.05;;;;;;;;;;5073714;28;20071;-91
2022/03/19 03:47:35;;;;;;;13.45;5.10;;;;;;;;;;5072187;28;20020;-83
2022/03/19 03:50:00;;;;;;;13.52;5.60;;;;;;;;;;5072494;28;20033;-88
2022/03/19 03:52:26;;;;;;;13.43;5.38;;;;;;;;;;5071257;28;20465;-91
2022/03/19 03:54:52;;;;;;;14.77;5.78;;;;;;;;;;5073073;28;20457;-91
2022/03/19 03:57:17;;;;;;;14.05;5.93;;;;;;;;;;5073274;28;20024;-83
2022/03/19 03:59:42;;;;;;;12.65;5.25;;;;;;;;;;5072295;28;20036;-92
2022/03/19 04:02:08;;;;;;;15.55;5.72;;;;;;;;;;5072459;28;20074;-90
2022/03/19 04:04:33;;;;;;;16.85;5.90;;;;;;;;;;5071993;28;20025;-90
2022/03/19 04:06:58;;;;;;;15.23;5.25;;;;;;;;;;5072420;28;20017;-91
2022/03/19 04:09:23;;;;;;;15.85;6.05;;;;;;;;;;5072406;28;20017;-87
2022/03/19 04:11:48;;;;;;;13.63;5.78;;;;;;;;;;5073115;28;20374;-90
2022/03/19 04:14:14;;;;;;;16.45;5.82;;;;;;;;;;5072369;28;20032;-90
2022/03/19 04:16:39;;;;;;;16.08;6.35;;;;;;;;;;5072205;28;20024;-83
2022/03/19 04:19:04;;;;;;;15.07;6.07;;;;;;;;;;5072235;28;20369;-91
2022/03/19 04:21:30;;;;;;;15.70;6.63;;;;;;;;;;5071774;28;20074;-88
2022/03/19 04:23:55;;;;;;;17.65;7.05;;;;;;;;;;5071560;28;20460;-84
2022/03/19 04:26:20;;;;;;;18.10;6.38;;;;;;;;;;5071856;28;20025;-83
2022/03/19 04:28:45;;;;;;;14.07;6.13;;;;;;;;;;5071666;28;20020;-91
2022/03/19 04:31:10;;;;;;;18.52;6.95;;;;;;;;;;5071798;28;20012;-89
2022/03/19 04:33:36;;;;;;;18.63;7.65;;;;;;;;;;5071504;28;20027;-91
2022/03/19 04:38:44;;;;;;;19.27;7.43;;;;;;;;;;5072808;28;20024;-90
2022/03/19 04:41:11;;;;;;;18.38;7.07;;;;;;;;;;5071357;28;20427;-90
2022/03/19 04:43:36;;;;;;;17.40;6.85;;;;;;;;;;5071826;28;20021;-90
2022/03/19 04:46:02;;;;;;;19.50;7.50;;;;;;;;;;5071613;28;20016;-87
2022/03/19 04:48:27;;;;;;;17.13;7.57;;;;;;;;;;5072486;28;20016;-91
2022/03/19 04:50:53;;;;;;;18.77;6.88;;;;;;;;;;5072658;28;20021;-90
2022/03/19 04:53:18;;;;;;;17.55;7.28;;;;;;;;;;5071212;28;20384;-83
2022/03/19 04:55:43;;;;;;;19.55;7.18;;;;;;;;;;5072192;28;20124;-86
2022/03/19 04:58:09;;;;;;;18.58;7.25;;;;;;;;;;5072856;28;20023;-90
2022/03/19 05:00:35;;;;;;;17.95;7.18;;;;;;;;;;5071886;28;20017;-89
2022/03/19 05:03:00;;;;;;;18.77;8.80;;;;;;;;;;5072920;28;20089;-90
2022/03/19 05:05:25;;;;;;;16.08;7.45;;;;;;;;;;5075151;28;20512;-86
2022/03/19 05:07:54;;;;;;;16.90;7.18;;;;;;;;;;5075258;28;20016;-91
2022/03/19 05:13:03;;;;;;;24.38;8.20;;;;;;;;;;5076866;28;20062;-91
2022/03/19 05:15:28;;;;;;;17.33;7.47;;;;;;;;;;5075022;28;20115;-90
2022/03/19 05:17:54;;;;;;;19.83;7.90;;;;;;;;;;5076057;28;20017;-87
2022/03/19 05:20:19;;;;;;;21.40;7.35;;;;;;;;;;5076211;28;20077;-91
2022/03/19 05:22:44;;;;;;;17.40;7.63;;;;;;;;;;5075037;28;20023;-90
2022/03/19 05:25:09;;;;;;;19.17;8.35;;;;;;;;;;5089201;28;20387;-90
2022/03/19 05:27:35;;;;;;;19.30;7.43;;;;;;;;;;5094277;28;20078;-91
2022/03/19 05:30:00;;;;;;;23.77;8.27;;;;;;;;;;5094435;28;20020;-91
2022/03/19 05:32:25;;;;;;;21.20;8.07;;;;;;;;;;5092859;28;20035;-90
2022/03/19 05:34:51;;;;;;;21.70;8.95;;;;;;;;;;5095924;28;20081;-91
2022/03/19 05:37:17;;;;;;;17.73;7.65;;;;;;;;;;5095795;28;20035;-90
2022/03/19 05:39:42;;;;;;;19.15;7.72;;;;;;;;;;5096036;28;20396;-91
2022/03/19 05:42:07;;;;;;;17.50;8.82;;;;;;;;;;5095645;28;20107;-91
2022/03/19 05:44:33;;;;;;;19.45;8.55;;;;;;;;;;5094651;28;20519;-90
2022/03/19 05:46:58;;;;;;;17.20;7.82;;;;;;;;;;5094563;28;20467;-90
2022/03/19 05:49:24;;;;;;;20.52;8.05;;;;;;;;;;5094678;28;20527;-91
2022/03/19 05:51:49;;;;;;;21.13;8.38;;;;;;;;;;5094390;28;20028;-91
2022/03/19 05:54:14;;;;;;;22.05;7.90;;;;;;;;;;5095209;28;20035;-90
2022/03/19 05:56:39;;;;;;;18.38;7.18;;;;;;;;;;5094297;28;20012;-84
2022/03/19 05:59:04;;;;;;;17.25;7.90;;;;;;;;;;5095584;28;20042;-89
2022/03/19 06:01:30;;;;;;;19.92;8.02;;;;;;;;;;5094484;28;20016;-90
2022/03/19 06:03:56;;;;;;;21.98;8.15;;;;;;;;;;5094020;28;20081;-90
2022/03/19 06:06:21;;;;;;;19.75;7.15;;;;;;;;;;5094650;28;20034;-91
2022/03/19 06:08:46;;;;;;;19.95;7.97;;;;;;;;;;5087657;28;20025;-90
2022/03/19 06:11:12;;;;;;;18.23;7.32;;;;;;;;;;5099173;28;20429;-84
2022/03/19 06:13:37;;;;;;;22.13;8.88;;;;;;;;;;5073904;28;20021;-91
2022/03/19 06:16:02;;;;;;;23.10;8.60;;;;;;;;;;5072812;28;20024;-91
2022/03/19 06:18:28;;;;;;;19.55;8.55;;;;;;;;;;5074061;28;20020;-91
2022/03/19 06:20:53;;;;;;;19.27;8.35;;;;;;;;;;5073959;28;20111;-91
2022/03/19 06:23:18;;;;;;;17.80;8.18;;;;;;;;;;5074897;28;20016;-90
2022/03/19 06:25:43;;;;;;;20.92;8.85;;;;;;;;;;5074168;28;20024;-89
2022/03/19 06:28:09;;;;;;;22.88;9.75;;;;;;;;;;5073562;28;20056;-90
2022/03/19 06:30:37;;;;;;;25.90;10.13;;;;;;;;;;5073880;28;20042;-84
2022/03/19 06:33:03;;;;;;;19.60;7.97;;;;;;;;;;5074029;28;20024;-90
2022/03/19 06:38:13;;;;;;;23.27;9.75;;;;;;;;;;5075045;28;20074;-92
2022/03/19 06:40:38;;;;;;;22.13;10.02;;;;;;;;;;5074766;28;20125;-91
2022/03/19 06:43:03;;;;;;;26.40;10.90;;;;;;;;;;5073533;28;20460;-90
2022/03/19 06:45:28;;;;;;;24.05;10.68;;;;;;;;;;5074500;28;20023;-88
2022/03/19 06:47:54;;;;;;;23.95;9.73;;;;;;;;;;5073205;28;20439;-84
2022/03/19 06:50:19;;;;;;;23.58;9.80;;;;;;;;;;5073687;28;20496;-94
2022/03/19 06:52:45;;;;;;;24.60;9.15;;;;;;;;;;5081795;28;20107;-92
2022/03/19 06:55:10;;;;;;;21.40;8.68;;;;;;;;;;5092427;28;20454;-93
2022/03/19 06:57:35;;;;;;;24.67;10.02;;;;;;;;;;5093606;28;20523;-91
2022/03/19 07:00:00;;;;;;;24.52;10.68;;;;;;;;;;5094283;28;20495;-94
2022/03/19 07:02:26;;;;;;;23.77;10.35;;;;;;;;;;5093824;28;20624;-83
2022/03/19 07:04:51;;;;;;;22.15;9.68;;;;;;;;;;5094489;28;20162;-92
2022/03/19 07:07:17;;;;;;;23.15;11.65;;;;;;;;;;5094383;28;20024;-83
2022/03/19 07:09:43;;;;;;;24.63;10.88;;;;;;;;;;5093577;28;20066;-92
2022/03/19 07:12:11;;;;;;;24.55;9.93;;;;;;;;;;5094593;28;20073;-85
2022/03/19 07:14:36;;;;;;;24.38;10.13;;;;;;;;;;5093648;28;20051;-90
2022/03/19 07:17:01;;;;;;;28.60;10.73;;;;;;;;;;5093490;28;20024;-92
2022/03/19 07:19:26;;;;;;;27.83;10.15;;;;;;;;;;5093462;28;20460;-91
2022/03/19 07:21:52;;;;;;;25.73;9.90;;;;;;;;;;5094404;28;20550;-91
2022/03/19 07:24:17;;;;;;;24.73;11.35;;;;;;;;;;5093202;28;20020;-91
2022/03/19 07:26:42;;;;;;;26.10;11.20;;;;;;;;;;5094396;28;20074;-92
2022/03/19 07:29:07;;;;;;;27.70;10.40;;;;;;;;;;5093726;28;20028;-83
2022/03/19 07:31:33;;;;;;;22.85;10.73;;;;;;;;;;5094106;28;20028;-84
2022/03/19 07:33:59;;;;;;;24.27;9.68;;;;;;;;;;5092906;28;20119;-92
2022/03/19 07:36:24;;;;;;;23.92;10.88;;;;;;;;;;5093175;28;20168;-90
2022/03/19 07:38:49;;;;;;;23.55;9.35;;;;;;;;;;5093809;28;20061;-92
2022/03/19 07:43:59;;;;;;;21.08;10.20;;;;;;;;;;5093851;28;20031;-92
2022/03/19 07:46:27;;;;;;;24.88;11.02;;;;;;;;;;5092629;28;20020;-88
2022/03/19 07:48:52;;;;;;;25.17;11.30;;;;;;;;;;5092932;28;20107;-89
2022/03/19 07:51:18;;;;;;;27.23;11.57;;;;;;;;;;5092442;28;20073;-91
2022/03/19 07:53:43;;;;;;;25.55;11.13;;;;;;;;;;5092669;28;20041;-91
2022/03/19 07:56:10;;;;;;;22.17;11.13;;;;;;;;;;5092820;28;20080;-83
2022/03/19 07:58:35;;;;;;;22.33;10.52;;;;;;;;;;5093712;28;20016;-89
2022/03/19 08:01:00;;;;;;;24.50;10.80;;;;;;;;;;5093268;28;20054;-89
2022/03/19 08:03:25;;;;;;;23.90;11.45;;;;;;;;;;5088143;28;20052;-83
2022/03/19 08:05:51;;;;;;;24.95;11.23;;;;;;;;;;5093250;28;20012;-92
2022/03/19 08:08:16;;;;;;;27.95;11.57;;;;;;;;;;5093036;28;20024;-88
2022/03/19 08:10:41;;;;;;;28.92;10.77;;;;;;;;;;5092088;28;20012;-92
2022/03/19 08:13:08;;;;;;;24.13;11.15;;;;;;;;;;5092382;28;20392;-91
2022/03/19 08:15:34;;;;;;;25.17;11.73;;;;;;;;;;5092020;28;20036;-92
2022/03/19 08:17:59;;;;;;;25.35;10.82;;;;;;;;;;5092280;28;20048;-92
2022/03/19 08:20:25;;;;;;;24.95;10.75;;;;;;;;;;5093481;28;20043;-88
2022/03/19 08:22:50;;;;;;;22.90;10.45;;;;;;;;;;5093760;28;20024;-91
2022/03/19 08:25:16;;;;;;;26.63;11.10;;;;;;;;;;5093311;28;20155;-88
2022/03/19 08:27:41;;;;;;;24.75;11.20;;;;;;;;;;5092152;28;20016;-91
2022/03/19 08:30:07;;;;;;;22.30;10.05;;;;;;;;;;5092629;28;20373;-92
2022/03/19 08:32:32;;;;;;;24.52;11.10;;;;;;;;;;5093066;28;20043;-92
2022/03/19 08:34:57;;;;;;;25.98;11.40;;;;;;;;;;5092133;28;20387;-93
2022/03/19 08:37:22;;;;;;;25.50;10.98;;;;;;;;;;5092159;28;20064;-92
2022/03/19 08:42:35;;;;;;;21.25;9.38;;;;;;;;;;5097451;28;20031;-94
2022/03/19 08:45:01;;;;;;;28.15;12.25;;;;;;;;;;5095893;28;20110;-88
2022/03/19 08:47:26;;;;;;;22.45;12.18;;;;;;;;;;5095531;28;20805;-93
2022/03/19 08:49:51;;;;;;;24.10;10.65;;;;;;;;;;5096140;28;20429;-93
2022/03/19 08:52:17;;;;;;;29.63;11.32;;;;;;;;;;5095461;28;20028;-93
2022/03/19 08:54:42;;;;;;;24.52;10.40;;;;;;;;;;5096943;28;20066;-92
2022/03/19 08:57:10;;;;;;;29.48;12.18;;;;;;;;;;5095829;28;20020;-93
2022/03/19 08:59:35;;;;;;;25.60;11.02;;;;;;;;;;5097018;28;20486;-92
2022/03/19 09:02:00;;;;;;;24.75;10.88;;;;;;;;;;5095939;28;20091;-93
2022/03/19 09:04:25;;;;;;;24.45;11.45;;;;;;;;;;5096007;28;20463;-88
2022/03/19 09:06:51;;;;;;;23.45;10.70;;;;;;;;;;5096862;28;20020;-93
2022/03/19 09:09:17;;;;;;;23.73;10.52;;;;;;;;;;5095799;28;20024;-82
2022/03/19 09:11:42;;;;;;;23.98;11.02;;;;;;;;;;5096919;28;20024;-89
2022/03/19 09:14:08;;;;;;;25.30;10.43;;;;;;;;;;5095285;28;20035;-90
2022/03/19 09:16:33;;;;;;;26.65;12.32;;;;;;;;;;5096796;28;20039;-90
2022/03/19 09:18:59;;;;;;;23.17;9.95;;;;;;;;;;5096772;28;20023;-91
2022/03/19 09:21:24;;;;;;;26.52;10.52;;;;;;;;;;5096798;28;20016;-86
2022/03/19 09:23:50;;;;;;;23.42;10.63;;;;;;;;;;5096231;28;20012;-90
2022/03/19 09:26:16;;;;;;;25.83;10.38;;;;;;;;;;5095690;28;20067;-82
2022/03/19 09:28:41;;;;;;;25.00;10.10;;;;;;;;;;5096743;28;20473;-87
2022/03/19 09:31:07;;;;;;;20.90;9.57;;;;;;;;;;5095108;28;20020;-91
2022/03/19 09:33:33;;;;;;;24.35;9.88;;;;;;;;;;5095380;28;20016;-91
2022/03/19 09:36:01;;;;;;;21.17;9.90;;;;;;;;;;5096391;28;20024;-87
2022/03/19 09:38:26;;;;;;;23.42;10.05;;;;;;;;;;5095004;28;20020;-89
2022/03/19 09:40:51;;;;;;;20.90;9.30;;;;;;;;;;5095303;28;20472;-90
2022/03/19 09:43:16;;;;;;;22.40;10.38;;;;;;;;;;5096113;28;20028;-89
2022/03/19 09:45:42;;;;;;;24.10;10.48;;;;;;;;;;5095368;28;20357;-90
2022/03/19 09:48:07;;;;;;;22.08;10.02;;;;;;;;;;5096126;28;20016;-91
2022/03/19 09:50:34;;;;;;;22.40;10.18;;;;;;;;;;5094875;28;20345;-92
2022/03/19 09:53:01;;;;;;;22.42;9.45;;;;;;;;;;5094630;28;20559;-93
2022/03/19 09:55:27;;;;;;;25.92;10.25;;;;;;;;;;5095897;28;20472;-86
2022/03/19 09:57:53;;;;;;;23.83;10.43;;;;;;;;;;5095827;28;20094;-90
2022/03/19 10:00:22;;;;;;;21.73;9.65;;;;;;;;;;5094839;28;20016;-90
2022/03/19 10:02:53;;;;;;;22.55;9.18;;;;;;;;;;5094879;28;20027;-82
2022/03/19 10:10:47;;;;;;;20.48;8.63;;;;;;;;;;5096499;28;20038;-90
2022/03/19 10:13:12;;;;;;;20.50;8.00;;;;;;;;;;5094882;28;20131;-91
2022/03/19 10:15:41;;;;;;;19.88;9.10;;;;;;;;;;5095488;28;20060;-90
2022/03/19 10:18:07;;;;;;;21.05;8.48;;;;;;;;;;5094369;28;20567;-87
2022/03/19 10:20:34;;;;;;;19.23;8.48;;;;;;;;;;5095513;28;20032;-90
2022/03/19 10:22:59;;;;;;;19.67;8.68;;;;;;;;;;5094516;28;20012;-90
2022/03/19 10:25:25;;;;;;;20.05;8.85;;;;;;;;;;5094272;28;20046;-91
2022/03/19 10:27:50;;;;;;;16.08;7.13;;;;;;;;;;5095487;28;20370;-91
2022/03/19 10:30:16;;;;;;;26.05;8.50;;;;;;;;;;5093945;28;20028;-91
2022/03/19 10:32:44;;;;;;;19.25;7.78;;;;;;;;;;5092561;28;20024;-91
2022/03/19 10:35:26;;;;;;;18.40;6.85;;;;;;;;;;5084096;28;20028;-92
2022/03/19 10:37:52;;;;;;;16.77;7.05;;;;;;;;;;5073506;28;20036;-90
2022/03/19 10:40:17;;;;;;;19.42;7.03;;;;;;;;;;5073922;28;20029;-85
2022/03/19 10:42:42;;;;;;;17.00;7.72;;;;;;;;;;5090668;28;20017;-90
2022/03/19 10:45:08;;;;;;;18.65;7.57;;;;;;;;;;5082870;28;20502;-89
2022/03/19 10:47:44;;;;;;;18.35;6.85;;;;;;;;;;5093852;28;20016;-94
2022/03/19 10:50:16;;;;;;;19.45;7.13;;;;;;;;;;5093561;28;20022;-91
2022/03/19 10:52:41;;;;;;;18.05;7.35;;;;;;;;;;5093345;28;20105;-83
2022/03/19 10:55:07;;;;;;;20.75;8.07;;;;;;;;;;5094675;28;20119;-92
2022/03/19 10:57:33;;;;;;;21.58;9.18;;;;;;;;;;5094688;28;20448;-92
2022/03/19 10:59:59;;;;;;;16.38;6.43;;;;;;;;;;5094801;28;20030;-91
2022/03/19 11:02:26;;;;;;;15.35;6.47;;;;;;;;;;5094303;28;20020;-92
2022/03/19 11:04:51;;;;;;;17.52;6.88;;;;;;;;;;5093256;28;20035;-90
2022/03/19 11:07:18;;;;;;;17.55;7.55;;;;;;;;;;5093460;28;20023;-91
2022/03/19 11:09:44;;;;;;;18.52;7.28;;;;;;;;;;5094653;28;20012;-90
2022/03/19 11:12:11;;;;;;;18.00;6.80;;;;;;;;;;5094635;28;20023;-91
2022/03/19 11:14:37;;;;;;;17.95;6.75;;;;;;;;;;5093438;28;20036;-86
2022/03/19 11:17:24;;;;;;;16.70;5.57;;;;;;;;;;5093369;28;20027;-89
2022/03/19 11:19:50;;;;;;;17.10;5.35;;;;;;;;;;5093032;28;20528;-91
2022/03/19 11:22:15;;;;;;;12.95;5.68;;;;;;;;;;5094404;28;20024;-89
2022/03/19 11:24:44;;;;;;;19.45;6.82;;;;;;;;;;5093868;28;20471;-91
2022/03/19 11:27:10;;;;;;;14.63;5.85;;;;;;;;;;5094277;28;20027;-91
2022/03/19 11:29:35;;;;;;;19.33;6.93;;;;;;;;;;5094281;28;20376;-91
2022/03/19 11:32:05;;;;;;;18.77;6.82;;;;;;;;;;5094288;28;20024;-92
2022/03/19 11:34:47;;;;;;;13.57;5.43;;;;;;;;;;5092089;28;20020;-91
2022/03/19 11:37:13;;;;;;;13.63;5.47;;;;;;;;;;5092967;28;20492;-91
2022/03/19 11:39:38;;;;;;;16.85;5.30;;;;;;;;;;5094166;28;20017;-86
2022/03/19 11:42:06;;;;;;;12.35;5.18;;;;;;;;;;5092738;28;20035;-90
2022/03/19 11:44:31;;;;;;;8.15;4.38;;;;;;;;;;5092692;28;20738;-90
2022/03/19 11:46:57;;;;;;;11.43;4.57;;;;;;;;;;5093864;28;20055;-91
2022/03/19 11:49:41;;;;;;;13.32;5.45;;;;;;;;;;5093419;28;20024;-89
2022/03/19 11:52:06;;;;;;;12.48;4.70;;;;;;;;;;5092315;28;20111;-83
2022/03/19 11:54:54;;;;;;;10.15;4.07;;;;;;;;;;5092451;28;20515;-90
2022/03/19 11:57:20;;;;;;;10.18;4.50;;;;;;;;;;5087965;28;20024;-90
2022/03/19 11:59:46;;;;;;;9.45;3.60;;;;;;;;;;5091301;28;20104;-86
2022/03/19 12:02:12;;;;;;;11.13;3.30;;;;;;;;;;5091685;28;20016;-85
2022/03/19 12:04:40;;;;;;;12.32;4.55;;;;;;;;;;5091591;28;20193;-86
2022/03/19 12:07:05;;;;;;;8.18;3.20;;;;;;;;;;5091246;28;20026;-87
2022/03/19 12:09:39;;;;;;;7.53;3.58;;;;;;;;;;5092006;28;20114;-86
2022/03/19 12:12:26;;;;;;;8.02;3.33;;;;;;;;;;5092360;28;20107;-86
2022/03/19 12:14:52;;;;;;;8.75;2.83;;;;;;;;;;5091108;28;20027;-86
2022/03/19 12:17:21;;;;;;;6.90;2.83;;;;;;;;;;5092488;28;20016;-86
2022/03/19 12:19:59;;;;;;;8.13;2.90;;;;;;;;;;5092720;28;20456;-86
2022/03/19 12:22:28;;;;;;;8.98;2.78;;;;;;;;;;5090883;28;20111;-85
2022/03/19 12:24:57;;;;;;;7.20;3.25;;;;;;;;;;5092756;28;20332;-86
2022/03/19 12:27:23;;;;;;;9.02;3.28;;;;;;;;;;5091804;28;20032;-87
2022/03/19 12:29:49;;;;;;;6.53;3.22;;;;;;;;;;5091780;28;20030;-86
2022/03/19 12:32:15;;;;;;;6.03;2.60;;;;;;;;;;5092040;28;20073;-87
2022/03/19 12:34:40;;;;;;;6.90;2.70;;;;;;;;;;5091248;28;20024;-88
2022/03/19 12:37:05;;;;;;;5.38;2.20;;;;;;;;;;5092102;28;20032;-92
2022/03/19 12:39:31;;;;;;;5.93;2.20;;;;;;;;;;5092255;28;20016;-92
2022/03/19 12:41:56;;;;;;;4.70;2.20;;;;;;;;;;5093155;28;20020;-83
2022/03/19 12:44:29;;;;;;;8.40;3.55;;;;;;;;;;5093403;28;20027;-91
2022/03/19 12:46:59;;;;;;;7.05;2.65;;;;;;;;;;5091450;28;20032;-87
2022/03/19 12:49:25;;;;;;;4.05;2.42;;;;;;;;;;5091425;28;20039;-85
2022/03/19 12:51:50;;;;;;;4.22;2.00;;;;;;;;;;5091566;28;20032;-90
2022/03/19 12:54:27;;;;;;;5.68;2.38;;;;;;;;;;5092950;28;20027;-90
2022/03/19 12:56:53;;;;;;;5.05;2.42;;;;;;;;;;5092014;28;20057;-90
2022/03/19 12:59:20;;;;;;;7.03;2.58;;;;;;;;;;5093053;28;20518;-92
2022/03/19 13:01:46;;;;;;;6.50;2.42;;;;;;;;;;5092298;28;20028;-90
2022/03/19 13:04:17;;;;;;;3.50;1.90;;;;;;;;;;5092088;28;20026;-92
2022/03/19 13:06:42;;;;;;;;;;;;;;;;;;5092633;28;20518;-91
2022/03/19 13:09:08;;;;;;;6.90;2.22;;;;;;;;;;5092105;28;20264;-93
2022/03/19 13:11:43;;;;;;;7.25;2.10;;;;;;;;;;5091970;28;20051;-92
2022/03/19 13:14:08;;;;;;;6.70;2.78;;;;;;;;;;5093208;28;20095;-91
2022/03/19 13:16:33;;;;;;;4.70;2.13;;;;;;;;;;5092816;28;20123;-84
2022/03/19 13:19:02;;;;;;;3.92;2.35;;;;;;;;;;5093066;28;20020;-91
2022/03/19 13:21:29;;;;;;;4.85;2.00;;;;;;;;;;5091518;28;20024;-91
2022/03/19 13:23:54;;;;;;;3.60;1.90;;;;;;;;;;5092007;28;20032;-92
2022/03/19 13:26:21;;;;;;;7.03;2.08;;;;;;;;;;5096661;28;20020;-92
2022/03/19 13:29:02;;;;;;;8.80;2.63;;;;;;;;;;5095319;28;20024;-91
2022/03/19 13:31:27;;;;;;;4.82;2.50;;;;;;;;;;5096641;28;20073;-92
2022/03/19 13:33:58;;;;;;;5.15;2.00;;;;;;;;;;5096930;28;20099;-89
2022/03/19 13:36:25;;;;;;;5.65;2.25;;;;;;;;;;5095638;28;20027;-91
2022/03/19 13:38:54;;;;;;;13.95;3.88;;;;;;;;;;5096561;28;20043;-90
2022/03/19 13:41:19;;;;;;;7.63;3.08;;;;;;;;;;5095418;28;20114;-92
2022/03/19 13:43:44;;;;;;;10.02;4.15;;;;;;;;;;5095663;28;20067;-91
2022/03/19 13:46:10;;;;;;;9.40;3.60;;;;;;;;;;5096522;28;20050;-91
2022/03/19 13:48:36;;;;;;;9.52;3.80;;;;;;;;;;5096361;28;20028;-93
2022/03/19 13:51:01;;;;;;;11.88;4.47;;;;;;;;;;5096765;28;20166;-90
2022/03/19 13:53:44;;;;;;;11.45;4.03;;;;;;;;;;5095110;28;20115;-92
2022/03/19 13:56:10;;;;;;;6.88;2.30;;;;;;;;;;5094606;28;20031;-92
2022/03/19 13:58:35;;;;;;;5.00;2.70;;;;;;;;;;5094695;28;20103;-91
2022/03/19 14:01:10;;;;;;;5.40;2.40;;;;;;;;;;5095217;28;20051;-91
2022/03/19 14:03:40;;;;;;;11.45;4.93;;;;;;;;;;5094458;28;20035;-89
2022/03/19 14:06:05;;;;;;;13.98;7.32;;;;;;;;;;5094475;28;20016;-90
2022/03/19 14:08:30;;;;;;;14.25;6.95;;;;;;;;;;5095706;28;20107;-91
2022/03/19 14:10:56;;;;;;;15.70;8.38;;;;;;;;;;5094536;28;20036;-91
2022/03/19 14:13:24;;;;;;;20.10;9.23;;;;;;;;;;5095800;28;20016;-90
2022/03/19 14:15:51;;;;;;;18.17;9.13;;;;;;;;;;5094114;28;20032;-91
2022/03/19 14:18:19;;;;;;;22.48;11.75;;;;;;;;;;5093996;28;20032;-91
2022/03/19 14:20:45;;;;;;;12.70;5.43;;;;;;;;;;5094230;28;20031;-93
2022/03/19 14:23:10;;;;;;;13.93;5.57;;;;;;;;;;5092089;28;20114;-91
2022/03/19 14:25:35;;;;;;;14.82;6.55;;;;;;;;;;5093869;28;20387;-92
2022/03/19 14:28:05;;;;;;;20.10;6.80;;;;;;;;;;5093047;28;20016;-91
2022/03/19 14:30:30;;;;;;;15.85;7.03;;;;;;;;;;5093920;28;20111;-91
2022/03/19 14:32:59;;;;;;;13.90;6.30;;;;;;;;;;5093952;28;20479;-91
2022/03/19 14:35:44;;;;;;;11.80;6.57;;;;;;;;;;5094712;28;20114;-86
2022/03/19 14:38:10;;;;;;;10.88;5.85;;;;;;;;;;5094899;28;20059;-90
2022/03/19 14:40:35;;;;;;;11.48;6.03;;;;;;;;;;5093665;28;20024;-90
2022/03/19 14:43:02;;;;;;;9.45;5.07;;;;;;;;;;5094829;28;20012;-91
2022/03/19 14:45:28;;;;;;;13.10;6.15;;;;;;;;;;5093381;28;20027;-89
2022/03/19 14:47:53;;;;;;;10.82;4.72;;;;;;;;;;5093493;28;20030;-90